sensor_id;sensor_type;location;lat;lon;timestamp;P1;durP1;ratioP1;P2;durP2;ratioP2
67798;SDS011;54596;43.216;27.904;2023-09-19T00:00:20;14.88;;;8.43;;
67798;SDS011;54596;43.216;27.904;2023-09-19T00:02:51;17.38;;;8.27;;
67798;SDS011;54596;43.216;27.904;2023-09-19T00:05:18;16.95;;;8.07;;
67798;SDS011;54596;43.216;27.904;2023-09-19T00:07:44;16.45;;;8.07;;
67798;SDS011;54596;43.216;27.904;2023-09-19T00:10:10;23.40;;;9.38;;
67798;SDS011;54596;43.216;27.904;2023-09-19T00:12:35;18.55;;;8.60;;
67798;SDS011;54596;43.216;27.904;2023-09-19T00:15:01;16.20;;;8.38;;
67798;SDS011;54596;43.216;27.904;2023-09-19T00:17:30;17.30;;;8.23;;
67798;SDS011;54596;43.216;27.904;2023-09-19T00:19:57;22.45;;;9.23;;
67798;SDS011;54596;43.216;27.904;2023-09-19T00:22:23;19.23;;;9.02;;
67798;SDS011;54596;43.216;27.904;2023-09-19T00:24:51;17.85;;;9.75;;
67798;SDS011;54596;43.216;27.904;2023-09-19T00:27:17;16.17;;;8.65;;
67798;SDS011;54596;43.216;27.904;2023-09-19T00:29:43;18.80;;;8.85;;
67798;SDS011;54596;43.216;27.904;2023-09-19T00:32:09;17.77;;;8.73;;
67798;SDS011;54596;43.216;27.904;2023-09-19T00:34:34;19.70;;;9.35;;
67798;SDS011;54596;43.216;27.904;2023-09-19T00:37:00;16.40;;;8.85;;
67798;SDS011;54596;43.216;27.904;2023-09-19T00:39:26;17.33;;;8.40;;
67798;SDS011;54596;43.216;27.904;2023-09-19T00:41:56;19.70;;;8.63;;
67798;SDS011;54596;43.216;27.904;2023-09-19T00:44:22;18.60;;;8.50;;
67798;SDS011;54596;43.216;27.904;2023-09-19T00:46:48;19.38;;;8.15;;
67798;SDS011;54596;43.216;27.904;2023-09-19T00:49:15;18.55;;;7.60;;
67798;SDS011;54596;43.216;27.904;2023-09-19T00:51:41;18.30;;;8.30;;
67798;SDS011;54596;43.216;27.904;2023-09-19T00:54:11;23.70;;;9.27;;
67798;SDS011;54596;43.216;27.904;2023-09-19T00:56:43;25.65;;;9.20;;
67798;SDS011;54596;43.216;27.904;2023-09-19T00:59:09;23.23;;;9.15;;
67798;SDS011;54596;43.216;27.904;2023-09-19T01:01:36;24.52;;;9.13;;
67798;SDS011;54596;43.216;27.904;2023-09-19T01:04:05;26.70;;;9.52;;
67798;SDS011;54596;43.216;27.904;2023-09-19T01:06:31;23.67;;;8.95;;
67798;SDS011;54596;43.216;27.904;2023-09-19T01:08:57;26.73;;;9.30;;
67798;SDS011;54596;43.216;27.904;2023-09-19T01:11:31;27.33;;;9.60;;
67798;SDS011;54596;43.216;27.904;2023-09-19T01:16:45;24.92;;;9.15;;
67798;SDS011;54596;43.216;27.904;2023-09-19T01:22:13;21.52;;;9.82;;
67798;SDS011;54596;43.216;27.904;2023-09-19T01:30:32;24.27;;;9.48;;
67798;SDS011;54596;43.216;27.904;2023-09-19T01:33:01;18.27;;;8.80;;
67798;SDS011;54596;43.216;27.904;2023-09-19T01:35:29;18.48;;;8.15;;
67798;SDS011;54596;43.216;27.904;2023-09-19T01:37:54;18.77;;;9.15;;
67798;SDS011;54596;43.216;27.904;2023-09-19T01:40:20;19.98;;;9.50;;
67798;SDS011;54596;43.216;27.904;2023-09-19T01:51:07;18.98;;;9.45;;
67798;SDS011;54596;43.216;27.904;2023-09-19T01:56:21;19.67;;;9.30;;
67798;SDS011;54596;43.216;27.904;2023-09-19T01:58:51;14.18;;;9.07;;
67798;SDS011;54596;43.216;27.904;2023-09-19T02:01:22;17.77;;;9.50;;
67798;SDS011;54596;43.216;27.904;2023-09-19T02:03:50;16.80;;;9.80;;
67798;SDS011;54596;43.216;27.904;2023-09-19T02:06:16;17.00;;;8.88;;
67798;SDS011;54596;43.216;27.904;2023-09-19T02:08:43;16.55;;;8.75;;
67798;SDS011;54596;43.216;27.904;2023-09-19T02:11:10;17.48;;;9.65;;
67798;SDS011;54596;43.216;27.904;2023-09-19T02:13:36;17.73;;;9.73;;
67798;SDS011;54596;43.216;27.904;2023-09-19T02:16:02;17.17;;;10.13;;
67798;SDS011;54596;43.216;27.904;2023-09-19T02:18:29;19.58;;;10.00;;
67798;SDS011;54596;43.216;27.904;2023-09-19T02:20:55;18.90;;;10.10;;
67798;SDS011;54596;43.216;27.904;2023-09-19T02:23:23;17.17;;;10.60;;
67798;SDS011;54596;43.216;27.904;2023-09-19T02:25:53;19.25;;;10.98;;
67798;SDS011;54596;43.216;27.904;2023-09-19T02:28:19;20.30;;;11.60;;
67798;SDS011;54596;43.216;27.904;2023-09-19T02:30:47;17.85;;;10.32;;
67798;SDS011;54596;43.216;27.904;2023-09-19T02:33:14;18.33;;;10.00;;
67798;SDS011;54596;43.216;27.904;2023-09-19T02:35:40;21.38;;;14.00;;
67798;SDS011;54596;43.216;27.904;2023-09-19T02:38:05;15.10;;;9.00;;
67798;SDS011;54596;43.216;27.904;2023-09-19T02:40:37;15.60;;;8.90;;
67798;SDS011;54596;43.216;27.904;2023-09-19T02:43:02;16.35;;;10.20;;
67798;SDS011;54596;43.216;27.904;2023-09-19T02:45:29;19.42;;;10.55;;
67798;SDS011;54596;43.216;27.904;2023-09-19T02:47:55;19.88;;;9.98;;
67798;SDS011;54596;43.216;27.904;2023-09-19T02:50:22;17.92;;;9.80;;
67798;SDS011;54596;43.216;27.904;2023-09-19T02:52:48;19.85;;;10.00;;
67798;SDS011;54596;43.216;27.904;2023-09-19T02:55:17;18.35;;;10.32;;
67798;SDS011;54596;43.216;27.904;2023-09-19T02:57:50;20.55;;;10.55;;
67798;SDS011;54596;43.216;27.904;2023-09-19T03:00:17;15.52;;;10.05;;
67798;SDS011;54596;43.216;27.904;2023-09-19T03:02:49;17.15;;;10.95;;
67798;SDS011;54596;43.216;27.904;2023-09-19T03:05:18;21.08;;;10.75;;
67798;SDS011;54596;43.216;27.904;2023-09-19T03:07:44;16.40;;;10.60;;
67798;SDS011;54596;43.216;27.904;2023-09-19T03:10:12;18.77;;;11.43;;
67798;SDS011;54596;43.216;27.904;2023-09-19T03:12:38;21.10;;;11.63;;
67798;SDS011;54596;43.216;27.904;2023-09-19T03:15:05;19.65;;;10.85;;
67798;SDS011;54596;43.216;27.904;2023-09-19T03:17:31;19.10;;;10.93;;
67798;SDS011;54596;43.216;27.904;2023-09-19T03:19:57;21.77;;;10.88;;
67798;SDS011;54596;43.216;27.904;2023-09-19T03:22:23;18.92;;;11.38;;
67798;SDS011;54596;43.216;27.904;2023-09-19T03:24:50;20.73;;;11.10;;
67798;SDS011;54596;43.216;27.904;2023-09-19T03:27:15;19.77;;;11.07;;
67798;SDS011;54596;43.216;27.904;2023-09-19T03:29:41;20.80;;;11.45;;
67798;SDS011;54596;43.216;27.904;2023-09-19T03:32:07;20.70;;;12.60;;
67798;SDS011;54596;43.216;27.904;2023-09-19T03:34:36;22.05;;;10.90;;
67798;SDS011;54596;43.216;27.904;2023-09-19T03:37:11;24.55;;;12.02;;
67798;SDS011;54596;43.216;27.904;2023-09-19T03:39:36;24.55;;;16.10;;
67798;SDS011;54596;43.216;27.904;2023-09-19T03:42:02;25.30;;;13.75;;
67798;SDS011;54596;43.216;27.904;2023-09-19T03:44:29;23.65;;;13.70;;
67798;SDS011;54596;43.216;27.904;2023-09-19T03:46:55;22.13;;;12.77;;
67798;SDS011;54596;43.216;27.904;2023-09-19T03:49:22;23.15;;;12.63;;
67798;SDS011;54596;43.216;27.904;2023-09-19T03:51:47;25.02;;;13.82;;
67798;SDS011;54596;43.216;27.904;2023-09-19T03:54:13;24.42;;;13.80;;
67798;SDS011;54596;43.216;27.904;2023-09-19T03:56:39;22.40;;;13.32;;
67798;SDS011;54596;43.216;27.904;2023-09-19T03:59:04;22.52;;;15.07;;
67798;SDS011;54596;43.216;27.904;2023-09-19T04:01:30;24.70;;;14.73;;
67798;SDS011;54596;43.216;27.904;2023-09-19T04:03:58;28.40;;;14.55;;
67798;SDS011;54596;43.216;27.904;2023-09-19T04:06:24;27.13;;;15.07;;
67798;SDS011;54596;43.216;27.904;2023-09-19T04:08:49;27.23;;;15.70;;
67798;SDS011;54596;43.216;27.904;2023-09-19T04:11:15;35.30;;;18.85;;
67798;SDS011;54596;43.216;27.904;2023-09-19T04:13:40;30.23;;;17.58;;
67798;SDS011;54596;43.216;27.904;2023-09-19T04:16:06;28.90;;;16.73;;
67798;SDS011;54596;43.216;27.904;2023-09-19T04:18:35;32.92;;;18.35;;
67798;SDS011;54596;43.216;27.904;2023-09-19T04:21:03;28.98;;;16.23;;
67798;SDS011;54596;43.216;27.904;2023-09-19T04:23:30;27.95;;;15.70;;
67798;SDS011;54596;43.216;27.904;2023-09-19T04:25:56;28.77;;;15.93;;
67798;SDS011;54596;43.216;27.904;2023-09-19T04:28:22;28.45;;;15.75;;
67798;SDS011;54596;43.216;27.904;2023-09-19T04:30:49;28.25;;;15.70;;
67798;SDS011;54596;43.216;27.904;2023-09-19T04:33:15;29.75;;;15.20;;
67798;SDS011;54596;43.216;27.904;2023-09-19T04:35:40;32.08;;;16.35;;
67798;SDS011;54596;43.216;27.904;2023-09-19T04:38:07;30.52;;;16.27;;
67798;SDS011;54596;43.216;27.904;2023-09-19T04:40:34;28.55;;;16.65;;
67798;SDS011;54596;43.216;27.904;2023-09-19T04:43:00;32.15;;;16.85;;
67798;SDS011;54596;43.216;27.904;2023-09-19T04:45:26;38.75;;;18.00;;
67798;SDS011;54596;43.216;27.904;2023-09-19T04:47:53;35.08;;;18.25;;
67798;SDS011;54596;43.216;27.904;2023-09-19T04:50:19;33.40;;;17.63;;
67798;SDS011;54596;43.216;27.904;2023-09-19T04:52:48;36.42;;;18.45;;
67798;SDS011;54596;43.216;27.904;2023-09-19T04:55:16;29.00;;;16.27;;
67798;SDS011;54596;43.216;27.904;2023-09-19T04:57:45;31.08;;;17.25;;
67798;SDS011;54596;43.216;27.904;2023-09-19T05:00:21;32.67;;;16.17;;
67798;SDS011;54596;43.216;27.904;2023-09-19T05:02:49;31.45;;;17.52;;
67798;SDS011;54596;43.216;27.904;2023-09-19T05:05:16;32.38;;;19.67;;
67798;SDS011;54596;43.216;27.904;2023-09-19T05:07:44;31.63;;;18.58;;
67798;SDS011;54596;43.216;27.904;2023-09-19T05:10:10;36.42;;;20.15;;
67798;SDS011;54596;43.216;27.904;2023-09-19T05:12:37;32.72;;;18.83;;
67798;SDS011;54596;43.216;27.904;2023-09-19T05:15:03;31.63;;;18.17;;
67798;SDS011;54596;43.216;27.904;2023-09-19T05:17:30;36.80;;;19.90;;
67798;SDS011;54596;43.216;27.904;2023-09-19T05:19:56;34.95;;;22.00;;
67798;SDS011;54596;43.216;27.904;2023-09-19T05:22:23;32.80;;;21.83;;
67798;SDS011;54596;43.216;27.904;2023-09-19T05:24:50;36.60;;;22.40;;
67798;SDS011;54596;43.216;27.904;2023-09-19T05:27:16;43.83;;;26.42;;
67798;SDS011;54596;43.216;27.904;2023-09-19T05:29:42;38.17;;;22.95;;
67798;SDS011;54596;43.216;27.904;2023-09-19T05:32:09;40.72;;;25.35;;
67798;SDS011;54596;43.216;27.904;2023-09-19T05:34:36;40.15;;;21.33;;
67798;SDS011;54596;43.216;27.904;2023-09-19T05:37:01;35.65;;;20.52;;
67798;SDS011;54596;43.216;27.904;2023-09-19T05:39:27;34.10;;;19.23;;
67798;SDS011;54596;43.216;27.904;2023-09-19T05:41:53;38.45;;;23.27;;
67798;SDS011;54596;43.216;27.904;2023-09-19T05:44:18;34.65;;;23.77;;
67798;SDS011;54596;43.216;27.904;2023-09-19T05:46:44;31.98;;;20.92;;
67798;SDS011;54596;43.216;27.904;2023-09-19T05:49:13;26.60;;;15.73;;
67798;SDS011;54596;43.216;27.904;2023-09-19T05:51:38;30.38;;;16.77;;
67798;SDS011;54596;43.216;27.904;2023-09-19T05:54:04;27.30;;;16.10;;
67798;SDS011;54596;43.216;27.904;2023-09-19T05:56:29;32.75;;;17.08;;
67798;SDS011;54596;43.216;27.904;2023-09-19T05:58:56;25.02;;;14.50;;
67798;SDS011;54596;43.216;27.904;2023-09-19T06:01:21;26.98;;;13.05;;
67798;SDS011;54596;43.216;27.904;2023-09-19T06:03:47;30.00;;;13.27;;
67798;SDS011;54596;43.216;27.904;2023-09-19T06:06:13;23.05;;;11.98;;
67798;SDS011;54596;43.216;27.904;2023-09-19T06:08:39;22.48;;;11.98;;
67798;SDS011;54596;43.216;27.904;2023-09-19T06:11:05;22.80;;;11.85;;
67798;SDS011;54596;43.216;27.904;2023-09-19T06:13:34;23.52;;;12.18;;
67798;SDS011;54596;43.216;27.904;2023-09-19T06:15:59;24.42;;;12.52;;
67798;SDS011;54596;43.216;27.904;2023-09-19T06:18:30;26.85;;;12.10;;
67798;SDS011;54596;43.216;27.904;2023-09-19T06:23:30;24.42;;;11.77;;
67798;SDS011;54596;43.216;27.904;2023-09-19T06:25:56;28.38;;;14.40;;
67798;SDS011;54596;43.216;27.904;2023-09-19T06:28:22;25.65;;;12.07;;
67798;SDS011;54596;43.216;27.904;2023-09-19T06:30:51;33.45;;;12.63;;
67798;SDS011;54596;43.216;27.904;2023-09-19T06:33:17;23.30;;;11.98;;
67798;SDS011;54596;43.216;27.904;2023-09-19T06:35:43;19.23;;;10.52;;
67798;SDS011;54596;43.216;27.904;2023-09-19T06:38:12;29.65;;;13.65;;
67798;SDS011;54596;43.216;27.904;2023-09-19T06:40:39;39.40;;;12.40;;
67798;SDS011;54596;43.216;27.904;2023-09-19T06:43:08;39.08;;;12.20;;
67798;SDS011;54596;43.216;27.904;2023-09-19T06:45:35;26.35;;;9.93;;
67798;SDS011;54596;43.216;27.904;2023-09-19T06:48:01;17.88;;;8.98;;
67798;SDS011;54596;43.216;27.904;2023-09-19T06:50:28;18.10;;;9.18;;
67798;SDS011;54596;43.216;27.904;2023-09-19T06:52:55;17.98;;;8.75;;
67798;SDS011;54596;43.216;27.904;2023-09-19T06:55:22;16.98;;;9.10;;
67798;SDS011;54596;43.216;27.904;2023-09-19T06:57:52;23.27;;;8.57;;
67798;SDS011;54596;43.216;27.904;2023-09-19T07:00:21;25.55;;;11.63;;
67798;SDS011;54596;43.216;27.904;2023-09-19T07:03:00;16.45;;;8.65;;
67798;SDS011;54596;43.216;27.904;2023-09-19T07:05:28;15.32;;;7.47;;
67798;SDS011;54596;43.216;27.904;2023-09-19T07:07:56;15.70;;;8.07;;
67798;SDS011;54596;43.216;27.904;2023-09-19T07:10:26;17.58;;;8.52;;
67798;SDS011;54596;43.216;27.904;2023-09-19T07:13:14;20.77;;;9.88;;
67798;SDS011;54596;43.216;27.904;2023-09-19T07:15:42;15.68;;;8.32;;
67798;SDS011;54596;43.216;27.904;2023-09-19T07:18:14;18.02;;;10.20;;
67798;SDS011;54596;43.216;27.904;2023-09-19T07:20:41;21.90;;;9.95;;
67798;SDS011;54596;43.216;27.904;2023-09-19T07:23:14;21.05;;;10.55;;
67798;SDS011;54596;43.216;27.904;2023-09-19T07:25:40;15.93;;;8.75;;
67798;SDS011;54596;43.216;27.904;2023-09-19T07:28:06;14.27;;;5.65;;
67798;SDS011;54596;43.216;27.904;2023-09-19T07:30:31;15.25;;;8.43;;
67798;SDS011;54596;43.216;27.904;2023-09-19T07:32:57;13.68;;;7.13;;
67798;SDS011;54596;43.216;27.904;2023-09-19T07:35:23;16.05;;;4.85;;
67798;SDS011;54596;43.216;27.904;2023-09-19T07:37:49;12.80;;;6.13;;
67798;SDS011;54596;43.216;27.904;2023-09-19T07:40:15;15.18;;;5.90;;
67798;SDS011;54596;43.216;27.904;2023-09-19T07:42:41;15.15;;;6.93;;
67798;SDS011;54596;43.216;27.904;2023-09-19T07:45:07;13.23;;;5.78;;
67798;SDS011;54596;43.216;27.904;2023-09-19T07:47:33;16.23;;;6.13;;
67798;SDS011;54596;43.216;27.904;2023-09-19T07:49:59;15.07;;;5.70;;
67798;SDS011;54596;43.216;27.904;2023-09-19T07:52:27;13.90;;;5.10;;
67798;SDS011;54596;43.216;27.904;2023-09-19T07:54:54;18.17;;;5.28;;
67798;SDS011;54596;43.216;27.904;2023-09-19T07:57:19;8.35;;;3.10;;
67798;SDS011;54596;43.216;27.904;2023-09-19T07:59:45;7.88;;;3.67;;
67798;SDS011;54596;43.216;27.904;2023-09-19T08:02:11;9.32;;;3.80;;
67798;SDS011;54596;43.216;27.904;2023-09-19T08:04:44;8.52;;;3.70;;
67798;SDS011;54596;43.216;27.904;2023-09-19T08:07:14;13.95;;;5.50;;
67798;SDS011;54596;43.216;27.904;2023-09-19T08:09:39;11.77;;;3.70;;
67798;SDS011;54596;43.216;27.904;2023-09-19T08:12:06;6.53;;;2.97;;
67798;SDS011;54596;43.216;27.904;2023-09-19T08:14:35;7.57;;;3.50;;
67798;SDS011;54596;43.216;27.904;2023-09-19T08:17:01;7.63;;;3.20;;
67798;SDS011;54596;43.216;27.904;2023-09-19T08:19:26;7.95;;;3.20;;
67798;SDS011;54596;43.216;27.904;2023-09-19T08:21:56;7.85;;;3.40;;
67798;SDS011;54596;43.216;27.904;2023-09-19T08:24:26;7.18;;;3.40;;
67798;SDS011;54596;43.216;27.904;2023-09-19T08:26:55;9.10;;;3.75;;
67798;SDS011;54596;43.216;27.904;2023-09-19T08:29:22;10.07;;;3.60;;
67798;SDS011;54596;43.216;27.904;2023-09-19T08:31:55;8.57;;;4.13;;
67798;SDS011;54596;43.216;27.904;2023-09-19T08:34:24;9.70;;;3.70;;
67798;SDS011;54596;43.216;27.904;2023-09-19T08:36:54;8.57;;;3.80;;
67798;SDS011;54596;43.216;27.904;2023-09-19T08:39:23;7.93;;;3.58;;
67798;SDS011;54596;43.216;27.904;2023-09-19T08:41:49;8.45;;;3.78;;
67798;SDS011;54596;43.216;27.904;2023-09-19T08:44:14;9.73;;;3.60;;
67798;SDS011;54596;43.216;27.904;2023-09-19T08:46:41;10.13;;;4.13;;
67798;SDS011;54596;43.216;27.904;2023-09-19T08:49:13;9.85;;;4.00;;
67798;SDS011;54596;43.216;27.904;2023-09-19T08:51:51;9.82;;;3.92;;
67798;SDS011;54596;43.216;27.904;2023-09-19T08:54:24;9.15;;;3.78;;
67798;SDS011;54596;43.216;27.904;2023-09-19T08:56:53;8.32;;;3.88;;
67798;SDS011;54596;43.216;27.904;2023-09-19T08:59:22;12.57;;;3.90;;
67798;SDS011;54596;43.216;27.904;2023-09-19T09:01:54;8.45;;;3.88;;
67798;SDS011;54596;43.216;27.904;2023-09-19T09:04:21;8.00;;;3.70;;
67798;SDS011;54596;43.216;27.904;2023-09-19T09:06:47;9.13;;;3.95;;
67798;SDS011;54596;43.216;27.904;2023-09-19T09:09:18;9.20;;;3.90;;
67798;SDS011;54596;43.216;27.904;2023-09-19T09:11:45;9.77;;;3.53;;
67798;SDS011;54596;43.216;27.904;2023-09-19T09:14:11;7.60;;;3.65;;
67798;SDS011;54596;43.216;27.904;2023-09-19T09:16:38;8.43;;;3.65;;
67798;SDS011;54596;43.216;27.904;2023-09-19T09:19:04;12.93;;;8.57;;
67798;SDS011;54596;43.216;27.904;2023-09-19T09:21:30;9.25;;;3.85;;
67798;SDS011;54596;43.216;27.904;2023-09-19T09:24:17;10.05;;;3.83;;
67798;SDS011;54596;43.216;27.904;2023-09-19T09:26:56;8.23;;;3.72;;
67798;SDS011;54596;43.216;27.904;2023-09-19T09:32:24;8.90;;;3.90;;
67798;SDS011;54596;43.216;27.904;2023-09-19T09:34:58;8.48;;;3.78;;
67798;SDS011;54596;43.216;27.904;2023-09-19T09:37:25;8.05;;;3.80;;
67798;SDS011;54596;43.216;27.904;2023-09-19T09:39:57;9.40;;;4.32;;
67798;SDS011;54596;43.216;27.904;2023-09-19T09:42:33;7.97;;;3.63;;
67798;SDS011;54596;43.216;27.904;2023-09-19T09:48:02;12.13;;;6.25;;
67798;SDS011;54596;43.216;27.904;2023-09-19T09:50:32;14.05;;;6.00;;
67798;SDS011;54596;43.216;27.904;2023-09-19T09:53:31;11.25;;;4.10;;
67798;SDS011;54596;43.216;27.904;2023-09-19T09:55:58;8.27;;;4.00;;
67798;SDS011;54596;43.216;27.904;2023-09-19T09:58:27;9.40;;;3.92;;
67798;SDS011;54596;43.216;27.904;2023-09-19T10:01:03;9.07;;;4.20;;
67798;SDS011;54596;43.216;27.904;2023-09-19T10:03:39;10.88;;;4.00;;
67798;SDS011;54596;43.216;27.904;2023-09-19T10:06:12;10.10;;;4.00;;
67798;SDS011;54596;43.216;27.904;2023-09-19T10:11:41;9.45;;;4.00;;
67798;SDS011;54596;43.216;27.904;2023-09-19T10:14:08;8.23;;;3.78;;
67798;SDS011;54596;43.216;27.904;2023-09-19T10:16:38;9.70;;;4.15;;
67798;SDS011;54596;43.216;27.904;2023-09-19T10:19:07;12.10;;;4.68;;
67798;SDS011;54596;43.216;27.904;2023-09-19T10:21:36;10.50;;;4.53;;
67798;SDS011;54596;43.216;27.904;2023-09-19T10:24:04;10.27;;;4.22;;
67798;SDS011;54596;43.216;27.904;2023-09-19T10:26:34;7.55;;;3.90;;
67798;SDS011;54596;43.216;27.904;2023-09-19T10:29:01;9.07;;;3.92;;
67798;SDS011;54596;43.216;27.904;2023-09-19T10:31:32;9.02;;;3.95;;
67798;SDS011;54596;43.216;27.904;2023-09-19T10:34:02;9.25;;;4.43;;
67798;SDS011;54596;43.216;27.904;2023-09-19T10:36:31;12.07;;;4.38;;
67798;SDS011;54596;43.216;27.904;2023-09-19T10:39:00;9.13;;;4.25;;
67798;SDS011;54596;43.216;27.904;2023-09-19T10:41:31;9.60;;;4.00;;
67798;SDS011;54596;43.216;27.904;2023-09-19T10:44:02;8.93;;;4.40;;
67798;SDS011;54596;43.216;27.904;2023-09-19T10:46:34;9.57;;;4.40;;
67798;SDS011;54596;43.216;27.904;2023-09-19T10:49:00;9.27;;;4.38;;
67798;SDS011;54596;43.216;27.904;2023-09-19T10:51:28;8.38;;;4.13;;
67798;SDS011;54596;43.216;27.904;2023-09-19T10:54:15;11.35;;;4.55;;
67798;SDS011;54596;43.216;27.904;2023-09-19T10:56:44;10.52;;;3.95;;
67798;SDS011;54596;43.216;27.904;2023-09-19T10:59:15;8.40;;;4.30;;
67798;SDS011;54596;43.216;27.904;2023-09-19T11:01:42;13.63;;;4.53;;
67798;SDS011;54596;43.216;27.904;2023-09-19T11:04:33;9.80;;;4.03;;
67798;SDS011;54596;43.216;27.904;2023-09-19T11:07:10;8.50;;;4.38;;
67798;SDS011;54596;43.216;27.904;2023-09-19T11:09:44;10.43;;;4.13;;
67798;SDS011;54596;43.216;27.904;2023-09-19T11:15:01;9.00;;;4.70;;
67798;SDS011;54596;43.216;27.904;2023-09-19T11:30:45;10.68;;;4.60;;
67798;SDS011;54596;43.216;27.904;2023-09-19T11:33:21;10.05;;;4.40;;
67798;SDS011;54596;43.216;27.904;2023-09-19T11:43:45;11.18;;;4.25;;
67798;SDS011;54596;43.216;27.904;2023-09-19T11:46:11;10.65;;;5.00;;
67798;SDS011;54596;43.216;27.904;2023-09-19T11:48:41;11.90;;;4.50;;
67798;SDS011;54596;43.216;27.904;2023-09-19T11:51:10;10.43;;;4.60;;
67798;SDS011;54596;43.216;27.904;2023-09-19T11:53:44;9.45;;;4.70;;
67798;SDS011;54596;43.216;27.904;2023-09-19T11:56:17;11.27;;;4.57;;
67798;SDS011;54596;43.216;27.904;2023-09-19T12:01:12;43.58;;;7.03;;
67798;SDS011;54596;43.216;27.904;2023-09-19T12:03:41;13.82;;;4.43;;
67798;SDS011;54596;43.216;27.904;2023-09-19T12:06:13;12.20;;;4.43;;
67798;SDS011;54596;43.216;27.904;2023-09-19T12:08:42;19.02;;;5.18;;
67798;SDS011;54596;43.216;27.904;2023-09-19T12:11:14;12.32;;;4.85;;
67798;SDS011;54596;43.216;27.904;2023-09-19T12:13:44;9.90;;;4.63;;
67798;SDS011;54596;43.216;27.904;2023-09-19T12:16:14;9.32;;;4.28;;
67798;SDS011;54596;43.216;27.904;2023-09-19T12:18:47;8.77;;;4.20;;
67798;SDS011;54596;43.216;27.904;2023-09-19T12:21:25;10.90;;;4.28;;
67798;SDS011;54596;43.216;27.904;2023-09-19T12:24:14;10.20;;;4.10;;
67798;SDS011;54596;43.216;27.904;2023-09-19T12:26:44;13.48;;;5.40;;
67798;SDS011;54596;43.216;27.904;2023-09-19T12:31:52;10.60;;;4.55;;
67798;SDS011;54596;43.216;27.904;2023-09-19T12:34:29;9.05;;;4.40;;
67798;SDS011;54596;43.216;27.904;2023-09-19T12:39:40;13.43;;;4.70;;
67798;SDS011;54596;43.216;27.904;2023-09-19T12:42:10;9.15;;;4.70;;
67798;SDS011;54596;43.216;27.904;2023-09-19T12:44:40;11.43;;;4.70;;
67798;SDS011;54596;43.216;27.904;2023-09-19T12:47:15;11.98;;;4.40;;
67798;SDS011;54596;43.216;27.904;2023-09-19T12:52:48;10.23;;;4.72;;
67798;SDS011;54596;43.216;27.904;2023-09-19T12:55:27;10.32;;;4.82;;
67798;SDS011;54596;43.216;27.904;2023-09-19T12:58:08;14.57;;;5.20;;
67798;SDS011;54596;43.216;27.904;2023-09-19T13:00:41;10.30;;;4.47;;
67798;SDS011;54596;43.216;27.904;2023-09-19T13:05:47;7.95;;;4.53;;
67798;SDS011;54596;43.216;27.904;2023-09-19T13:08:18;10.07;;;4.47;;
67798;SDS011;54596;43.216;27.904;2023-09-19T13:11:15;8.93;;;4.43;;
67798;SDS011;54596;43.216;27.904;2023-09-19T13:16:19;9.13;;;4.57;;
67798;SDS011;54596;43.216;27.904;2023-09-19T13:21:33;10.20;;;4.57;;
67798;SDS011;54596;43.216;27.904;2023-09-19T13:24:20;11.13;;;4.55;;
67798;SDS011;54596;43.216;27.904;2023-09-19T13:26:53;9.25;;;4.70;;
67798;SDS011;54596;43.216;27.904;2023-09-19T13:29:19;11.05;;;4.57;;
67798;SDS011;54596;43.216;27.904;2023-09-19T13:31:47;9.43;;;4.82;;
67798;SDS011;54596;43.216;27.904;2023-09-19T13:34:13;11.43;;;4.40;;
67798;SDS011;54596;43.216;27.904;2023-09-19T13:36:42;11.30;;;4.78;;
67798;SDS011;54596;43.216;27.904;2023-09-19T13:39:08;9.30;;;4.78;;
67798;SDS011;54596;43.216;27.904;2023-09-19T13:41:34;10.05;;;4.82;;
67798;SDS011;54596;43.216;27.904;2023-09-19T13:44:04;8.27;;;4.15;;
67798;SDS011;54596;43.216;27.904;2023-09-19T13:46:31;9.68;;;5.00;;
67798;SDS011;54596;43.216;27.904;2023-09-19T13:49:00;10.60;;;4.50;;
67798;SDS011;54596;43.216;27.904;2023-09-19T13:51:28;10.38;;;4.70;;
67798;SDS011;54596;43.216;27.904;2023-09-19T13:53:55;11.52;;;4.45;;
67798;SDS011;54596;43.216;27.904;2023-09-19T13:56:20;9.77;;;4.90;;
67798;SDS011;54596;43.216;27.904;2023-09-19T13:58:46;9.00;;;4.40;;
67798;SDS011;54596;43.216;27.904;2023-09-19T14:01:14;9.48;;;4.38;;
67798;SDS011;54596;43.216;27.904;2023-09-19T14:03:40;10.10;;;4.53;;
67798;SDS011;54596;43.216;27.904;2023-09-19T14:08:37;9.70;;;4.15;;
67798;SDS011;54596;43.216;27.904;2023-09-19T14:11:07;10.05;;;4.30;;
67798;SDS011;54596;43.216;27.904;2023-09-19T14:13:33;11.10;;;4.30;;
67798;SDS011;54596;43.216;27.904;2023-09-19T14:16:05;9.85;;;4.30;;
67798;SDS011;54596;43.216;27.904;2023-09-19T14:18:33;10.52;;;4.18;;
67798;SDS011;54596;43.216;27.904;2023-09-19T14:21:05;8.43;;;4.07;;
67798;SDS011;54596;43.216;27.904;2023-09-19T14:23:34;10.15;;;4.30;;
67798;SDS011;54596;43.216;27.904;2023-09-19T14:26:01;9.05;;;4.38;;
67798;SDS011;54596;43.216;27.904;2023-09-19T14:28:27;8.05;;;4.30;;
67798;SDS011;54596;43.216;27.904;2023-09-19T14:30:54;9.13;;;4.10;;
67798;SDS011;54596;43.216;27.904;2023-09-19T14:33:19;10.60;;;4.80;;
67798;SDS011;54596;43.216;27.904;2023-09-19T14:35:45;8.73;;;4.25;;
67798;SDS011;54596;43.216;27.904;2023-09-19T14:38:11;10.75;;;4.35;;
67798;SDS011;54596;43.216;27.904;2023-09-19T14:40:36;8.40;;;4.32;;
67798;SDS011;54596;43.216;27.904;2023-09-19T14:43:04;12.02;;;4.95;;
67798;SDS011;54596;43.216;27.904;2023-09-19T14:45:29;10.25;;;4.68;;
67798;SDS011;54596;43.216;27.904;2023-09-19T14:47:56;11.82;;;4.43;;
67798;SDS011;54596;43.216;27.904;2023-09-19T14:50:22;9.27;;;4.30;;
67798;SDS011;54596;43.216;27.904;2023-09-19T14:52:48;9.98;;;4.38;;
67798;SDS011;54596;43.216;27.904;2023-09-19T14:55:16;11.65;;;4.97;;
67798;SDS011;54596;43.216;27.904;2023-09-19T14:57:42;8.73;;;4.60;;
67798;SDS011;54596;43.216;27.904;2023-09-19T15:00:10;9.88;;;5.32;;
67798;SDS011;54596;43.216;27.904;2023-09-19T15:02:37;11.93;;;4.40;;
67798;SDS011;54596;43.216;27.904;2023-09-19T15:05:05;11.30;;;4.88;;
67798;SDS011;54596;43.216;27.904;2023-09-19T15:07:34;10.13;;;4.82;;
67798;SDS011;54596;43.216;27.904;2023-09-19T15:10:01;10.27;;;4.97;;
67798;SDS011;54596;43.216;27.904;2023-09-19T15:12:32;9.40;;;4.60;;
67798;SDS011;54596;43.216;27.904;2023-09-19T15:14:58;8.98;;;4.43;;
67798;SDS011;54596;43.216;27.904;2023-09-19T15:17:23;9.95;;;4.10;;
67798;SDS011;54596;43.216;27.904;2023-09-19T15:19:50;10.10;;;4.40;;
67798;SDS011;54596;43.216;27.904;2023-09-19T15:22:16;9.43;;;4.55;;
67798;SDS011;54596;43.216;27.904;2023-09-19T15:24:41;11.75;;;4.85;;
67798;SDS011;54596;43.216;27.904;2023-09-19T15:27:07;12.75;;;6.00;;
67798;SDS011;54596;43.216;27.904;2023-09-19T15:29:33;12.27;;;4.88;;
67798;SDS011;54596;43.216;27.904;2023-09-19T15:31:58;10.45;;;4.65;;
67798;SDS011;54596;43.216;27.904;2023-09-19T15:34:27;12.43;;;5.32;;
67798;SDS011;54596;43.216;27.904;2023-09-19T15:36:53;11.60;;;4.40;;
67798;SDS011;54596;43.216;27.904;2023-09-19T15:39:19;9.18;;;4.50;;
67798;SDS011;54596;43.216;27.904;2023-09-19T15:41:47;10.82;;;4.45;;
67798;SDS011;54596;43.216;27.904;2023-09-19T15:44:18;10.73;;;4.68;;
67798;SDS011;54596;43.216;27.904;2023-09-19T15:46:44;11.43;;;4.85;;